If you wish to contribute or participate in the discussions about articles you are invited to join SKYbrary as a registered user

 Actions

Almirante Marco Andres Zar Airport

From SKYbrary Wiki

SAVT
Airport
ICAO: SAVT – IATA: REL
Summary
Name Almirante Marco Andres Zar Airport
Region South America and Caribbean
Territory Argentina AR.gif
Location Trelew, Chubut
Serving Rawson
Elevation 42.977 m
141 ft
141 ft42.977 m
Type medium airport
Coordinates 43° 12' 37.80" S, 65° 16' 13.15" W
Runways
Designator Length Width Surface ROPS
6/24 2560 m8,398.95 ft
45 m147.638 ft
CON yes/yes


METAR
Observation SAVT 132016Z 11016KT 9999 SCT030 FEW038CB 15/14 Q1003 RETSRA RMK CB OBS TO N
Station Trelew Aerodrome
Date/Time 13 December 2018 20:16:00
Wind direction 110°
Wind speed 16 kts
Lowest cloud amount scattered clouds
Temperature 15°C
Dew point 14°C
Humidity 93%
QNH 1003 hPa
Weather condition n/a

Airport in Chubut Province, Argentina

Climatology

Semi-arid climate (Köppen climate classification BSk).

Maps

Terrain

Loading map...

Airport Layout

Loading map...


Accidents & Serious Incidents at or in vicinity of SAVT

None on SKYbrary